Time;durP1;ratioP1;P1;durP2;ratioP2;P2;SDS_P1;SDS_P2;PMS_P1;PMS_P2;Temp;Humidity;BMP_temperature;BMP_pressure;BME280_temperature;BME280_humidity;BME280_pressure;Samples;Min_cycle;Max_cycle;Signal;HPM_P1;HPM_P2
2022/12/27 00:03:33;;;;;;;;;;;;;;;4.26;100;102060.6;;;;-73
2022/12/27 00:08:32;;;;;;;;;;;;;;;4.26;100;102064;;;;-73
2022/12/27 00:13:32;;;;;;;;;;;;;;;4.26;100;102066.6;;;;-73
2022/12/27 00:18:32;;;;;;;;;;;;;;;4.29;100;102062.5;;;;-74
2022/12/27 00:23:34;;;;;;;;;;;;;;;4.37;100;102061.2;;;;-73
2022/12/27 00:23:49;;;;;;;3.3;0.7;;;;;;;;;;;;;-74
2022/12/27 00:28:32;;;;;;;;;;;;;;;4.4;100;102063.9;;;;-75
2022/12/27 00:33:33;;;;;;;;;;;;;;;4.39;100;102073.6;;;;-73
2022/12/27 00:38:32;;;;;;;;;;;;;;;4.38;100;102080.2;;;;-73
2022/12/27 00:43:32;;;;;;;;;;;;;;;4.38;100;102078.1;;;;-73
2022/12/27 00:48:32;;;;;;;;;;;;;;;4.39;100;102077.6;;;;-73
2022/12/27 00:53:32;;;;;;;;;;;;;;;4.4;100;102077.7;;;;-73
2022/12/27 00:53:48;;;;;;;3;0.9;;;;;;;;;;;;;-73
2022/12/27 00:58:32;;;;;;;;;;;;;;;4.43;100;102083.5;;;;-73
2022/12/27 01:03:32;;;;;;;;;;;;;;;4.49;100;102095;;;;-74
2022/12/27 01:08:32;;;;;;;;;;;;;;;4.56;100;102098.5;;;;-73
2022/12/27 01:13:32;;;;;;;;;;;;;;;4.48;100;102113.4;;;;-74
2022/12/27 01:18:32;;;;;;;;;;;;;;;4.48;100;102113.7;;;;-73
2022/12/27 01:23:33;;;;;;;;;;;;;;;4.45;100;102116.9;;;;-73
2022/12/27 01:23:47;;;;;;;5.8;0.9;;;;;;;;;;;;;-73
2022/12/27 01:28:32;;;;;;;;;;;;;;;4.43;100;102122.5;;;;-73
2022/12/27 01:33:32;;;;;;;;;;;;;;;4.4;100;102117.5;;;;-72
2022/12/27 01:38:32;;;;;;;;;;;;;;;4.41;100;102120.9;;;;-74
2022/12/27 01:43:43;;;;;;;;;;;;;;;4.43;100;102122.7;;;;-73
2022/12/27 01:48:32;;;;;;;;;;;;;;;4.44;100;102129.6;;;;-72
2022/12/27 01:53:33;;;;;;;;;;;;;;;4.46;100;102133.8;;;;-72
2022/12/27 01:53:51;;;;;;;3.1;1.1;;;;;;;;;;;;;-72
2022/12/27 01:58:35;;;;;;;;;;;;;;;4.46;100;102134.1;;;;-72
2022/12/27 02:03:34;;;;;;;;;;;;;;;4.49;100;102154.1;;;;-73
2022/12/27 02:08:47;;;;;;;;;;;;;;;4.53;100;102159.7;;;;-72
2022/12/27 02:13:34;;;;;;;;;;;;;;;4.52;100;102160.1;;;;-73
2022/12/27 02:18:32;;;;;;;;;;;;;;;4.48;100;102158.7;;;;-71
2022/12/27 02:24:12;;;;;;;4.6;1.1;;;;;;;;;;;;;-73
2022/12/27 02:28:38;;;;;;;;;;;;;;;4.46;100;102181.2;;;;-74
2022/12/27 02:33:35;;;;;;;;;;;;;;;4.47;100;102187.7;;;;-73
2022/12/27 02:38:34;;;;;;;;;;;;;;;4.47;100;102188.6;;;;-74
2022/12/27 02:53:36;;;;;;;;;;;;;;;4.42;100;102201.4;;;;-73
2022/12/27 02:53:51;;;;;;;5.3;0.9;;;;;;;;;;;;;-73
2022/12/27 02:58:36;;;;;;;;;;;;;;;4.39;100;102201.4;;;;-73
2022/12/27 03:03:39;;;;;;;;;;;;;;;4.37;100;102201.3;;;;-72
2022/12/27 03:08:38;;;;;;;;;;;;;;;4.34;100;102192.3;;;;-72
2022/12/27 03:18:38;;;;;;;;;;;;;;;4.24;100;102196.1;;;;-72
2022/12/27 03:33:34;;;;;;;;;;;;;;;4.13;100;102215.5;;;;-73
2022/12/27 03:38:35;;;;;;;;;;;;;;;4.11;100;102221.9;;;;-73
2022/12/27 03:43:32;;;;;;;;;;;;;;;4.07;100;102229.1;;;;-72
2022/12/27 03:48:35;;;;;;;;;;;;;;;4.07;100;102226.2;;;;-73
2022/12/27 03:53:35;;;;;;;;;;;;;;;4.04;100;102229.9;;;;-73
2022/12/27 03:53:47;;;;;;;3.4;1;;;;;;;;;;;;;-73
2022/12/27 03:58:32;;;;;;;;;;;;;;;4.01;100;102224;;;;-72
2022/12/27 04:03:32;;;;;;;;;;;;;;;3.96;100;102230.8;;;;-72
2022/12/27 04:38:32;;;;;;;;;;;;;;;3.72;100;102252.5;;;;-72
2022/12/27 04:58:32;;;;;;;;;;;;;;;3.67;100;102250.4;;;;-72
2022/12/27 05:03:32;;;;;;;;;;;;;;;3.65;100;102258.2;;;;-73
2022/12/27 05:18:32;;;;;;;;;;;;;;;3.59;100;102268.4;;;;-72
2022/12/27 05:28:32;;;;;;;;;;;;;;;3.55;100;102273.2;;;;-72
2022/12/27 05:33:33;;;;;;;;;;;;;;;3.53;100;102280.8;;;;-73
2022/12/27 05:38:32;;;;;;;;;;;;;;;3.51;100;102290.6;;;;-72
2022/12/27 05:43:32;;;;;;;;;;;;;;;3.49;100;102304.1;;;;-73
2022/12/27 05:48:32;;;;;;;;;;;;;;;3.48;100;102311.7;;;;-73
2022/12/27 05:53:32;;;;;;;;;;;;;;;3.46;100;102317;;;;-72
2022/12/27 05:53:44;;;;;;;4.1;1.1;;;;;;;;;;;;;-72
2022/12/27 05:58:32;;;;;;;;;;;;;;;3.45;100;102313.1;;;;-73
2022/12/27 06:03:32;;;;;;;;;;;;;;;3.45;100;102312.8;;;;-72
2022/12/27 06:08:32;;;;;;;;;;;;;;;3.4;100;102310.5;;;;-72
2022/12/27 06:13:32;;;;;;;;;;;;;;;3.4;100;102313.3;;;;-72
2022/12/27 06:18:35;;;;;;;;;;;;;;;3.37;100;102315.6;;;;-73
2022/12/27 06:23:32;;;;;;;;;;;;;;;3.35;100;102313.7;;;;-72
2022/12/27 06:23:45;;;;;;;3.2;1;;;;;;;;;;;;;-73
2022/12/27 06:28:32;;;;;;;;;;;;;;;3.34;100;102319.5;;;;-72
2022/12/27 06:33:32;;;;;;;;;;;;;;;3.32;100;102332.7;;;;-71
2022/12/27 06:38:32;;;;;;;;;;;;;;;3.3;100;102337.5;;;;-72
2022/12/27 06:43:32;;;;;;;;;;;;;;;3.26;100;102345.1;;;;-72
2022/12/27 06:48:32;;;;;;;;;;;;;;;3.25;100;102350.1;;;;-72
2022/12/27 06:53:32;;;;;;;;;;;;;;;3.28;100;102357.6;;;;-73
2022/12/27 06:53:44;;;;;;;2.9;1.1;;;;;;;;;;;;;-73
2022/12/27 06:58:32;;;;;;;;;;;;;;;3.27;100;102363.2;;;;-72
2022/12/27 07:03:32;;;;;;;;;;;;;;;3.3;100;102360.4;;;;-74
2022/12/27 07:08:32;;;;;;;;;;;;;;;3.34;100;102358.4;;;;-75
2022/12/27 07:13:32;;;;;;;;;;;;;;;3.37;100;102359.9;;;;-73
2022/12/27 07:18:32;;;;;;;;;;;;;;;3.35;100;102357.4;;;;-72
2022/12/27 07:23:32;;;;;;;;;;;;;;;3.39;100;102365;;;;-74
2022/12/27 07:23:43;;;;;;;8.2;1;;;;;;;;;;;;;-74
2022/12/27 07:28:32;;;;;;;;;;;;;;;3.39;100;102367.6;;;;-72
2022/12/27 07:33:32;;;;;;;;;;;;;;;3.38;100;102370.8;;;;-72
2022/12/27 07:38:32;;;;;;;;;;;;;;;3.37;100;102372.9;;;;-73
2022/12/27 07:43:32;;;;;;;;;;;;;;;3.37;100;102382.4;;;;-72
2022/12/27 07:48:32;;;;;;;;;;;;;;;3.38;100;102390.1;;;;-75
2022/12/27 07:53:32;;;;;;;;;;;;;;;3.34;100;102394.2;;;;-73
2022/12/27 07:53:43;;;;;;;4;1;;;;;;;;;;;;;-72
2022/12/27 07:58:32;;;;;;;;;;;;;;;3.36;100;102405;;;;-73
2022/12/27 08:03:32;;;;;;;;;;;;;;;3.35;100;102411.9;;;;-77
2022/12/27 08:08:35;;;;;;;;;;;;;;;3.35;100;102419.7;;;;-77
2022/12/27 08:13:32;;;;;;;;;;;;;;;3.36;100;102424.6;;;;-77
2022/12/27 08:18:32;;;;;;;;;;;;;;;3.36;100;102425.9;;;;-77
2022/12/27 08:23:32;;;;;;;;;;;;;;;3.35;100;102437.7;;;;-77
2022/12/27 08:23:43;;;;;;;4;1;;;;;;;;;;;;;-76
2022/12/27 08:28:32;;;;;;;;;;;;;;;3.35;100;102434.2;;;;-77
2022/12/27 08:33:32;;;;;;;;;;;;;;;3.31;100;102433.6;;;;-77
2022/12/27 08:38:32;;;;;;;;;;;;;;;3.31;100;102436.2;;;;-77
2022/12/27 08:43:32;;;;;;;;;;;;;;;3.3;100;102439.5;;;;-77
2022/12/27 08:48:32;;;;;;;;;;;;;;;3.27;100;102430.6;;;;-77
2022/12/27 08:53:32;;;;;;;;;;;;;;;3.26;100;102428;;;;-77
2022/12/27 08:53:43;;;;;;;7;1;;;;;;;;;;;;;-76
2022/12/27 08:58:32;;;;;;;;;;;;;;;3.26;100;102429.9;;;;-76
2022/12/27 09:03:32;;;;;;;;;;;;;;;3.29;100;102428.1;;;;-76
2022/12/27 09:08:32;;;;;;;;;;;;;;;3.32;100;102432.7;;;;-77
2022/12/27 09:13:32;;;;;;;;;;;;;;;3.36;100;102433.4;;;;-77
2022/12/27 09:18:32;;;;;;;;;;;;;;;3.47;100;102433.2;;;;-77
2022/12/27 09:23:32;;;;;;;;;;;;;;;3.58;100;102437.1;;;;-76
2022/12/27 09:23:42;;;;;;;1.9;0.7;;;;;;;;;;;;;-76
2022/12/27 09:28:32;;;;;;;;;;;;;;;3.61;100;102440.5;;;;-76
2022/12/27 09:33:32;;;;;;;;;;;;;;;3.74;100;102433.6;;;;-77
2022/12/27 09:38:32;;;;;;;;;;;;;;;3.83;100;102434.2;;;;-76
2022/12/27 09:43:37;;;;;;;;;;;;;;;3.78;100;102433.2;;;;-76
2022/12/27 09:48:34;;;;;;;;;;;;;;;3.8;100;102440.8;;;;-76
2022/12/27 09:53:36;;;;;;;;;;;;;;;3.89;100;102452.3;;;;-77
2022/12/27 09:53:48;;;;;;;5.9;1.2;;;;;;;;;;;;;-77
2022/12/27 09:58:41;;;;;;;;;;;;;;;4.08;100;102457.9;;;;-77
2022/12/27 10:03:33;;;;;;;;;;;;;;;4.18;100;102461.3;;;;-77
2022/12/27 10:08:38;;;;;;;;;;;;;;;4.25;100;102462.5;;;;-77
2022/12/27 10:13:41;;;;;;;;;;;;;;;4.4;100;102460.4;;;;-77
2022/12/27 10:18:41;;;;;;;;;;;;;;;4.49;100;102458.2;;;;-77
2022/12/27 10:23:33;;;;;;;;;;;;;;;4.6;100;102458.2;;;;-77
2022/12/27 10:23:44;;;;;;;4.6;1.3;;;;;;;;;;;;;-77
2022/12/27 10:28:36;;;;;;;;;;;;;;;4.72;100;102453.7;;;;-73
2022/12/27 10:33:32;;;;;;;;;;;;;;;4.8;100;102444.9;;;;-73
2022/12/27 10:38:34;;;;;;;;;;;;;;;4.86;100;102442.3;;;;-72
2022/12/27 10:43:36;;;;;;;;;;;;;;;4.99;100;102449.2;;;;-73
2022/12/27 10:48:33;;;;;;;;;;;;;;;5.14;100;102444.5;;;;-73
2022/12/27 10:53:41;;;;;;;;;;;;;;;5.33;100;102446;;;;-73
2022/12/27 10:54:00;;;;;;;10.3;1.6;;;;;;;;;;;;;-73
2022/12/27 10:58:40;;;;;;;;;;;;;;;5.4;99.86816;102445.9;;;;-72
2022/12/27 11:03:32;;;;;;;;;;;;;;;5.41;99.62012;102448.9;;;;-73
2022/12/27 11:08:32;;;;;;;;;;;;;;;5.47;99.8418;102450.3;;;;-72
2022/12/27 11:13:32;;;;;;;;;;;;;;;5.46;99.80469;102445.9;;;;-73
2022/12/27 11:18:33;;;;;;;;;;;;;;;5.47;99.8418;102444.4;;;;-74
2022/12/27 11:23:34;;;;;;;;;;;;;;;5.52;100;102447.5;;;;-73
2022/12/27 11:23:48;;;;;;;11.4;2.2;;;;;;;;;;;;;-73
2022/12/27 11:28:37;;;;;;;;;;;;;;;5.59;100;102450.9;;;;-72
2022/12/27 11:33:38;;;;;;;;;;;;;;;5.6;100;102446.9;;;;-73
2022/12/27 11:38:33;;;;;;;;;;;;;;;5.62;100;102439.7;;;;-73
2022/12/27 11:43:38;;;;;;;;;;;;;;;5.66;100;102432.3;;;;-74
2022/12/27 11:48:34;;;;;;;;;;;;;;;5.7;100;102434.4;;;;-73
2022/12/27 11:53:49;;;;;;;;;;;;;;;5.73;100;102431.7;;;;-75
2022/12/27 11:54:09;;;;;;;9.1;2.2;;;;;;;;;;;;;-75
2022/12/27 11:58:46;;;;;;;;;;;;;;;5.77;100;102424.4;;;;-75
2022/12/27 12:03:44;;;;;;;;;;;;;;;5.8;100;102422.2;;;;-73
2022/12/27 12:08:51;;;;;;;;;;;;;;;5.81;100;102410.7;;;;-74
2022/12/27 12:13:44;;;;;;;;;;;;;;;5.82;100;102408.6;;;;-73
2022/12/27 12:18:45;;;;;;;;;;;;;;;5.85;100;102405.8;;;;-74
2022/12/27 12:23:42;;;;;;;;;;;;;;;5.87;100;102392.5;;;;-74
2022/12/27 12:24:00;;;;;;;6.8;2.4;;;;;;;;;;;;;-74
2022/12/27 12:28:42;;;;;;;;;;;;;;;5.88;100;102375.8;;;;-74
2022/12/27 12:33:45;;;;;;;;;;;;;;;5.9;100;102364.2;;;;-75
2022/12/27 12:38:36;;;;;;;;;;;;;;;5.93;100;102361.9;;;;-76
2022/12/27 12:43:46;;;;;;;;;;;;;;;5.93;100;102339.6;;;;-77
2022/12/27 12:48:49;;;;;;;;;;;;;;;5.91;100;102328.3;;;;-77
2022/12/27 12:53:42;;;;;;;;;;;;;;;5.93;100;102324.9;;;;-77
2022/12/27 12:54:03;;;;;;;10.6;2.9;;;;;;;;;;;;;-77
2022/12/27 12:58:51;;;;;;;;;;;;;;;5.93;100;102312.1;;;;-79
2022/12/27 13:03:49;;;;;;;;;;;;;;;5.97;100;102306.4;;;;-79
2022/12/27 13:08:35;;;;;;;;;;;;;;;5.99;100;102297.9;;;;-78
2022/12/27 13:13:37;;;;;;;;;;;;;;;6.01;100;102292.7;;;;-77
2022/12/27 13:18:37;;;;;;;;;;;;;;;6.01;100;102285.5;;;;-78
2022/12/27 13:23:37;;;;;;;;;;;;;;;6.06;100;102283;;;;-77
2022/12/27 13:23:56;;;;;;;12.4;3.5;;;;;;;;;;;;;-77
2022/12/27 13:28:37;;;;;;;;;;;;;;;6.11;100;102278.8;;;;-77
2022/12/27 13:33:38;;;;;;;;;;;;;;;6.13;100;102263.7;;;;-77
2022/12/27 13:38:38;;;;;;;;;;;;;;;6.17;100;102260.7;;;;-77
2022/12/27 13:43:55;;;;;;;;;;;;;;;6.19;100;102257.6;;;;-78
2022/12/27 13:48:46;;;;;;;;;;;;;;;6.17;100;102251.3;;;;-78
2022/12/27 13:53:55;;;;;;;;;;;;;;;6.19;100;102247.5;;;;-76
2022/12/27 13:54:15;;;;;;;8.4;3.4;;;;;;;;;;;;;-76
2022/12/27 13:58:47;;;;;;;;;;;;;;;6.2;100;102246.6;;;;-78
2022/12/27 14:03:42;;;;;;;;;;;;;;;6.21;100;102246.8;;;;-77
2022/12/27 14:08:40;;;;;;;;;;;;;;;6.2;100;102234.4;;;;-78
2022/12/27 14:13:36;;;;;;;;;;;;;;;6.18;100;102230.8;;;;-78
2022/12/27 14:18:52;;;;;;;;;;;;;;;6.17;100;102230.3;;;;-78
2022/12/27 14:23:48;;;;;;;;;;;;;;;6.15;100;102222.4;;;;-74
2022/12/27 14:24:05;;;;;;;8.5;3.1;;;;;;;;;;;;;-74
2022/12/27 14:28:50;;;;;;;;;;;;;;;6.13;100;102208.5;;;;-74
2022/12/27 14:33:46;;;;;;;;;;;;;;;6.13;100;102200.7;;;;-74
2022/12/27 14:38:52;;;;;;;;;;;;;;;6.11;100;102192.3;;;;-74
2022/12/27 14:43:49;;;;;;;;;;;;;;;6.08;100;102190.3;;;;-74
2022/12/27 14:48:43;;;;;;;;;;;;;;;6.07;100;102196.9;;;;-73
2022/12/27 14:53:49;;;;;;;;;;;;;;;6.02;100;102194.5;;;;-74
2022/12/27 14:54:13;;;;;;;5.9;2.8;;;;;;;;;;;;;-74
2022/12/27 14:58:43;;;;;;;;;;;;;;;5.96;100;102197.1;;;;-74
2022/12/27 15:03:41;;;;;;;;;;;;;;;5.9;100;102197.3;;;;-73
2022/12/27 15:08:43;;;;;;;;;;;;;;;5.84;100;102207.3;;;;-73
2022/12/27 15:13:41;;;;;;;;;;;;;;;5.78;100;102219.1;;;;-72
2022/12/27 15:18:39;;;;;;;;;;;;;;;5.76;100;102224;;;;-72
2022/12/27 15:23:36;;;;;;;;;;;;;;;5.73;100;102213.5;;;;-73
2022/12/27 15:23:50;;;;;;;9.4;3.3;;;;;;;;;;;;;-73
2022/12/27 15:28:36;;;;;;;;;;;;;;;5.69;100;102206.9;;;;-73
2022/12/27 15:33:36;;;;;;;;;;;;;;;5.66;100;102205.3;;;;-73
2022/12/27 15:38:43;;;;;;;;;;;;;;;5.64;100;102197.5;;;;-73
2022/12/27 15:43:42;;;;;;;;;;;;;;;5.62;100;102200.7;;;;-73
2022/12/27 15:48:58;;;;;;;;;;;;;;;5.61;100;102195.3;;;;-73
2022/12/27 15:53:39;;;;;;;;;;;;;;;5.59;100;102182;;;;-73
2022/12/27 15:54:03;;;;;;;11.3;4.6;;;;;;;;;;;;;-73
2022/12/27 15:58:32;;;;;;;;;;;;;;;5.58;100;102179;;;;-77
2022/12/27 16:03:37;;;;;;;;;;;;;;;5.58;100;102170.4;;;;-77
2022/12/27 16:08:37;;;;;;;;;;;;;;;5.55;100;102152.6;;;;-78
2022/12/27 16:13:47;;;;;;;;;;;;;;;5.53;100;102152.7;;;;-73
2022/12/27 16:18:49;;;;;;;;;;;;;;;5.51;100;102150.3;;;;-74
2022/12/27 16:23:33;;;;;;;;;;;;;;;5.48;100;102153.9;;;;-73
2022/12/27 16:23:45;;;;;;;12.5;6.2;;;;;;;;;;;;;-73
2022/12/27 16:44:27;;;;;;;;;;;;;;;5.66;100;102110;;;;-73
2022/12/27 16:47:16;;;;;;;;;;;;;;;5.6;100;102114.1;;;;-73
2022/12/27 16:52:11;;;;;;;;;;;;;;;5.6;100;102107;;;;-73
2022/12/27 16:54:00;;;;;;;17.5;6.8;;;;;;;;;;;;;-74
2022/12/27 16:57:18;;;;;;;;;;;;;;;5.58;100;102106.4;;;;-76
2022/12/27 17:02:22;;;;;;;;;;;;;;;5.55;100;102101.6;;;;-73
2022/12/27 17:07:08;;;;;;;;;;;;;;;5.54;100;102087.3;;;;-74
2022/12/27 17:12:16;;;;;;;;;;;;;;;5.5;100;102092.3;;;;-74
2022/12/27 17:17:13;;;;;;;;;;;;;;;5.46;100;102087.4;;;;-73
2022/12/27 17:22:09;;;;;;;;;;;;;;;5.42;100;102085.5;;;;-74
2022/12/27 17:23:45;;;;;;;12.8;4.8;;;;;;;;;;;;;-74
2022/12/27 17:27:13;;;;;;;;;;;;;;;5.39;100;102085.3;;;;-73
2022/12/27 17:32:11;;;;;;;;;;;;;;;5.38;100;102074.1;;;;-73
2022/12/27 17:37:14;;;;;;;;;;;;;;;5.39;100;102065.4;;;;-73
2022/12/27 17:47:12;;;;;;;;;;;;;;;5.41;100;102038.1;;;;-73
2022/12/27 18:02:09;;;;;;;;;;;;;;;5.34;100;102037.6;;;;-73
2022/12/27 18:07:09;;;;;;;;;;;;;;;5.32;100;102026.9;;;;-73
2022/12/27 18:12:13;;;;;;;;;;;;;;;5.32;100;102026.7;;;;-73
2022/12/27 18:17:07;;;;;;;;;;;;;;;5.37;100;102023.4;;;;-76
2022/12/27 18:22:07;;;;;;;;;;;;;;;5.33;100;102007.7;;;;-77
2022/12/27 18:23:47;;;;;;;11.1;3.7;;;;;;;;;;;;;-77
2022/12/27 18:27:09;;;;;;;;;;;;;;;5.35;100;102004.7;;;;-77
2022/12/27 18:32:09;;;;;;;;;;;;;;;5.39;100;101988.4;;;;-76
2022/12/27 18:37:09;;;;;;;;;;;;;;;5.42;100;101979.4;;;;-75
2022/12/27 18:42:14;;;;;;;;;;;;;;;5.4;100;101971.2;;;;-77
2022/12/27 18:47:08;;;;;;;;;;;;;;;5.41;100;101965.6;;;;-77
2022/12/27 18:52:14;;;;;;;;;;;;;;;5.44;100;101960.1;;;;-77
2022/12/27 18:53:44;;;;;;;9.2;3.3;;;;;;;;;;;;;-77
2022/12/27 18:57:08;;;;;;;;;;;;;;;5.46;100;101962.1;;;;-79
2022/12/27 19:02:23;;;;;;;;;;;;;;;5.46;100;101958.5;;;;-77
2022/12/27 19:07:15;;;;;;;;;;;;;;;5.47;100;101946;;;;-78
2022/12/27 19:12:08;;;;;;;;;;;;;;;5.45;100;101925.7;;;;-78
2022/12/27 19:17:08;;;;;;;;;;;;;;;5.42;100;101921;;;;-77
2022/12/27 19:22:17;;;;;;;;;;;;;;;5.43;100;101912.8;;;;-78
2022/12/27 19:23:48;;;;;;;11.6;3.1;;;;;;;;;;;;;-78
2022/12/27 19:27:18;;;;;;;;;;;;;;;5.4;100;101906.7;;;;-76
2022/12/27 19:32:10;;;;;;;;;;;;;;;5.37;100;101898.5;;;;-77
2022/12/27 19:37:07;;;;;;;;;;;;;;;5.34;100;101890.5;;;;-77
2022/12/27 19:42:09;;;;;;;;;;;;;;;5.34;100;101868;;;;-77
2022/12/27 19:47:08;;;;;;;;;;;;;;;5.32;100;101867.1;;;;-76
2022/12/27 19:52:12;;;;;;;;;;;;;;;5.29;100;101855.5;;;;-74
2022/12/27 19:53:45;;;;;;;5.2;2.3;;;;;;;;;;;;;-73
2022/12/27 19:57:07;;;;;;;;;;;;;;;5.32;100;101847.4;;;;-73
2022/12/27 20:02:07;;;;;;;;;;;;;;;5.35;100;101842.4;;;;-72
2022/12/27 20:07:07;;;;;;;;;;;;;;;5.37;100;101831.3;;;;-74
2022/12/27 20:12:08;;;;;;;;;;;;;;;5.39;100;101824.1;;;;-77
2022/12/27 20:17:07;;;;;;;;;;;;;;;5.39;100;101827.7;;;;-73
2022/12/27 20:22:08;;;;;;;;;;;;;;;5.39;100;101820.4;;;;-73
2022/12/27 20:23:44;;;;;;;9;2.8;;;;;;;;;;;;;-74
2022/12/27 20:27:08;;;;;;;;;;;;;;;5.43;100;101808.2;;;;-73
2022/12/27 20:32:07;;;;;;;;;;;;;;;5.43;100;101800.9;;;;-73
2022/12/27 20:37:07;;;;;;;;;;;;;;;5.47;100;101808.5;;;;-73
2022/12/27 20:42:08;;;;;;;;;;;;;;;5.49;100;101797.8;;;;-73
2022/12/27 20:47:07;;;;;;;;;;;;;;;5.49;100;101790.4;;;;-73
2022/12/27 20:52:07;;;;;;;;;;;;;;;5.5;100;101785.7;;;;-73
2022/12/27 20:53:45;;;;;;;8.1;2.7;;;;;;;;;;;;;-74
2022/12/27 20:57:07;;;;;;;;;;;;;;;5.52;100;101783.4;;;;-72
2022/12/27 21:02:07;;;;;;;;;;;;;;;5.54;99.97559;101772.4;;;;-77
2022/12/27 21:07:07;;;;;;;;;;;;;;;5.55;99.95605;101762.5;;;;-77
2022/12/27 21:12:07;;;;;;;;;;;;;;;5.55;99.70605;101747;;;;-77
2022/12/27 21:17:08;;;;;;;;;;;;;;;5.56;99.94727;101744.1;;;;-77
2022/12/27 21:22:07;;;;;;;;;;;;;;;5.57;99.85352;101742.5;;;;-77
2022/12/27 21:23:45;;;;;;;7.9;2.9;;;;;;;;;;;;;-78
2022/12/27 21:27:07;;;;;;;;;;;;;;;5.57;99.82129;101736.3;;;;-77
2022/12/27 21:32:08;;;;;;;;;;;;;;;5.56;99.74316;101730.4;;;;-77
2022/12/27 21:37:07;;;;;;;;;;;;;;;5.57;99.69922;101717.2;;;;-77
2022/12/27 21:42:07;;;;;;;;;;;;;;;5.56;99.97949;101717.7;;;;-77
2022/12/27 21:47:08;;;;;;;;;;;;;;;5.57;99.75586;101717.5;;;;-73
2022/12/27 21:52:24;;;;;;;;;;;;;;;5.58;99.6582;101714.7;;;;-73
2022/12/27 21:53:45;;;;;;;7.8;2.8;;;;;;;;;;;;;-73
2022/12/27 21:57:07;;;;;;;;;;;;;;;5.59;99.82324;101714.7;;;;-74
2022/12/27 22:02:07;;;;;;;;;;;;;;;5.61;99.74219;101717.1;;;;-74
2022/12/27 22:07:07;;;;;;;;;;;;;;;5.59;100;101701;;;;-73
2022/12/27 22:12:07;;;;;;;;;;;;;;;5.57;100;101701.5;;;;-74
2022/12/27 22:17:07;;;;;;;;;;;;;;;5.54;100;101680.8;;;;-73
2022/12/27 22:22:07;;;;;;;;;;;;;;;5.55;100;101661.4;;;;-74
2022/12/27 22:23:45;;;;;;;7;2.7;;;;;;;;;;;;;-74
2022/12/27 22:27:07;;;;;;;;;;;;;;;5.51;100;101642.2;;;;-74
2022/12/27 22:32:08;;;;;;;;;;;;;;;5.51;100;101627.2;;;;-74
2022/12/27 22:37:07;;;;;;;;;;;;;;;5.5;100;101614.7;;;;-74
2022/12/27 22:42:07;;;;;;;;;;;;;;;5.49;100;101608.1;;;;-73
2022/12/27 22:47:08;;;;;;;;;;;;;;;5.48;100;101610.7;;;;-73
2022/12/27 22:52:07;;;;;;;;;;;;;;;5.47;100;101601;;;;-73
2022/12/27 22:53:45;;;;;;;7.7;2.7;;;;;;;;;;;;;-73
2022/12/27 22:57:07;;;;;;;;;;;;;;;5.47;100;101583.6;;;;-74
2022/12/27 23:02:07;;;;;;;;;;;;;;;5.45;100;101560.8;;;;-74
2022/12/27 23:07:08;;;;;;;;;;;;;;;5.45;100;101556.2;;;;-74
2022/12/27 23:12:08;;;;;;;;;;;;;;;5.45;100;101534.9;;;;-74
2022/12/27 23:17:08;;;;;;;;;;;;;;;5.43;100;101526.3;;;;-73
2022/12/27 23:22:07;;;;;;;;;;;;;;;5.43;100;101515.6;;;;-75
2022/12/27 23:23:45;;;;;;;9.5;3;;;;;;;;;;;;;-73
2022/12/27 23:27:07;;;;;;;;;;;;;;;5.42;100;101520.2;;;;-72
2022/12/27 23:32:08;;;;;;;;;;;;;;;5.41;100;101503.5;;;;-77
2022/12/27 23:37:07;;;;;;;;;;;;;;;5.41;100;101490.5;;;;-77
2022/12/27 23:42:07;;;;;;;;;;;;;;;5.4;100;101481.8;;;;-77
2022/12/27 23:47:08;;;;;;;;;;;;;;;5.39;100;101458.6;;;;-77
2022/12/27 23:52:08;;;;;;;;;;;;;;;5.39;100;101438;;;;-77
2022/12/27 23:53:45;;;;;;;8.8;3.4;;;;;;;;;;;;;-76
2022/12/27 23:57:07;;;;;;;;;;;;;;;5.38;100;101430.4;;;;-77
